Scf Explorer — WDE2863 — position and weather

sailwx.info

Track history (hours):
 
Tides and Currents Weather Stations Pressure Air Temp Water Temp Dewpoint Dewpoint Depression Visibility Wind Speed Wind Dir Waves Ship Positions

Scf Explorer

Owner: SCF Waxler Marine LLC, St Rose, LA. More information available from US FCC via Universal Licensing System and Coast Guard Vessel Documentation Center.

Last reported at 2015-May-20 02:23 UTC. Time now 2015-May-27 15:52 UTC.
Position N 29°36' W 090°58'.

Length 35 m; draft 2.3 m.

Type: Ship (hazmat cat B). MMSI: 367330620.

Date/timePositionNaut miles runAvg speedWind from/ knotsBaromVisibWave heightAir tempDewpointWater temp
2015-May-20 02:23N 29°36' W 090°58'4 4.3
2015-May-20 01:33N 29°34' W 090°55'5 4.8
2015-May-20 00:33N 29°32' W 090°50'4 4.5
2015-May-19 23:33N 29°33' W 090°45'2 2.0
2015-May-19 22:33N 29°34' W 090°43'3 2.6
2015-May-19 21:33N 29°37' W 090°42'2 2.0
2015-May-19 20:33N 29°36' W 090°40'0 0.1
2015-May-19 19:33N 29°36' W 090°40'3 3.1
2015-May-19 18:33N 29°35' W 090°37'31 4.2
2015-May-19 11:10N 29°47' W 090°04'3 4.4
2015-May-19 10:22N 29°51' W 090°02'4 3.8
2015-May-19 09:13N 29°54' W 089°59'  
2015-May-16 18:12N 29°57' W 090°09'31 2.1
2015-May-16 03:33N 29°34' W 090°32'6 6.0
2015-May-16 02:33N 29°35' W 090°38'0 0.2
2015-May-16 01:33N 29°35' W 090°39'2 2.1
2015-May-16 00:33N 29°36' W 090°41'4 3.7
2015-May-15 23:33N 29°34' W 090°44'6 5.9
2015-May-15 22:33N 29°32' W 090°51'  
2015-May-12 00:28N 29°23' W 094°49'6 7.1
2015-May-11 23:33N 29°29' W 094°52'7 6.9
2015-May-11 22:33N 29°35' W 094°56'7 7.3
2015-May-11 21:33N 29°42' W 094°60'7 3.3
2015-May-11 19:33N 29°47' W 095°04'0 0.0
2015-May-11 18:32N 29°47' W 095°04'0 0.0
2015-May-11 17:33N 29°47' W 095°04'0 0.0
2015-May-11 16:33N 29°47' W 095°04'2 0.6
2015-May-11 12:30N 29°46' W 095°06'0 0.0
2015-May-11 07:26N 29°46' W 095°06'0 0.0
2015-May-11 06:11N 29°46' W 095°06'0 0.0
2015-May-11 05:32N 29°46' W 095°06'0 0.0
2015-May-11 02:09N 29°46' W 095°06'0 0.0
2015-May-10 22:28N 29°46' W 095°06'0 0.0
2015-May-10 21:31N 29°46' W 095°06'2 0.7
2015-May-10 18:14N 29°47' W 095°04'0 0.4
2015-May-10 17:32N 29°47' W 095°04'1 0.1
2015-May-10 11:14N 29°47' W 095°05'0 0.0
2015-May-10 10:31N 29°47' W 095°05'0 0.0
2015-May-10 09:07N 29°47' W 095°05'0 0.3
2015-May-10 07:23N 29°46' W 095°05'5 5.7
2015-May-10 06:32N 29°45' W 095°10'  
Track history (hours):
 
Tides and Currents Weather Stations Pressure Air Temp Water Temp Dewpoint Dewpoint Depression Visibility Wind Speed Wind Dir Waves Ship Positions

Scf Explorer

Owner: SCF Waxler Marine LLC, St Rose, LA. More information available from US FCC via Universal Licensing System and Coast Guard Vessel Documentation Center.

Last reported at 2015-May-20 02:23 UTC. Time now 2015-May-27 15:52 UTC.
Position N 29°36' W 090°58'.

Length 35 m; draft 2.3 m.

Type: Ship (hazmat cat B). MMSI: 367330620.

Date/timePositionNaut miles runAvg speedWind from/ knotsBaromVisibWave heightAir tempDewpointWater temp
2015-May-20 02:23N 29°36' W 090°58'4 4.3
2015-May-20 01:33N 29°34' W 090°55'5 4.8
2015-May-20 00:33N 29°32' W 090°50'4 4.5
2015-May-19 23:33N 29°33' W 090°45'2 2.0
2015-May-19 22:33N 29°34' W 090°43'3 2.6
2015-May-19 21:33N 29°37' W 090°42'2 2.0
2015-May-19 20:33N 29°36' W 090°40'0 0.1
2015-May-19 19:33N 29°36' W 090°40'3 3.1
2015-May-19 18:33N 29°35' W 090°37'31 4.2
2015-May-19 11:10N 29°47' W 090°04'3 4.4
2015-May-19 10:22N 29°51' W 090°02'4 3.8
2015-May-19 09:13N 29°54' W 089°59'  
2015-May-16 18:12N 29°57' W 090°09'31 2.1
2015-May-16 03:33N 29°34' W 090°32'6 6.0
2015-May-16 02:33N 29°35' W 090°38'0 0.2
2015-May-16 01:33N 29°35' W 090°39'2 2.1
2015-May-16 00:33N 29°36' W 090°41'4 3.7
2015-May-15 23:33N 29°34' W 090°44'6 5.9
2015-May-15 22:33N 29°32' W 090°51'  
2015-May-12 00:28N 29°23' W 094°49'6 7.1
2015-May-11 23:33N 29°29' W 094°52'7 6.9
2015-May-11 22:33N 29°35' W 094°56'7 7.3
2015-May-11 21:33N 29°42' W 094°60'7 3.3
2015-May-11 19:33N 29°47' W 095°04'0 0.0
2015-May-11 18:32N 29°47' W 095°04'0 0.0
2015-May-11 17:33N 29°47' W 095°04'0 0.0
2015-May-11 16:33N 29°47' W 095°04'2 0.6
2015-May-11 12:30N 29°46' W 095°06'0 0.0
2015-May-11 07:26N 29°46' W 095°06'0 0.0
2015-May-11 06:11N 29°46' W 095°06'0 0.0
2015-May-11 05:32N 29°46' W 095°06'0 0.0
2015-May-11 02:09N 29°46' W 095°06'0 0.0
2015-May-10 22:28N 29°46' W 095°06'0 0.0
2015-May-10 21:31N 29°46' W 095°06'2 0.7
2015-May-10 18:14N 29°47' W 095°04'0 0.4
2015-May-10 17:32N 29°47' W 095°04'1 0.1
2015-May-10 11:14N 29°47' W 095°05'0 0.0
2015-May-10 10:31N 29°47' W 095°05'0 0.0
2015-May-10 09:07N 29°47' W 095°05'0 0.3
2015-May-10 07:23N 29°46' W 095°05'5 5.7
2015-May-10 06:32N 29°45' W 095°10'  

Dump ship's entire track history